sensor_id;sensor_type;location;lat;lon;timestamp;temperature;humidity
20858;DHT22;10589;53.636;10.012;2023-05-24T03:46:52;10.60;99.90
20858;DHT22;10589;53.636;10.012;2023-05-24T03:49:17;10.60;99.90
20858;DHT22;10589;53.636;10.012;2023-05-24T03:51:43;10.60;99.90
20858;DHT22;10589;53.636;10.012;2023-05-24T03:54:09;10.60;99.90
20858;DHT22;10589;53.636;10.012;2023-05-24T03:56:34;10.60;99.90
20858;DHT22;10589;53.636;10.012;2023-05-24T03:59:00;10.70;99.90
20858;DHT22;10589;53.636;10.012;2023-05-24T04:01:29;10.70;99.90
20858;DHT22;10589;53.636;10.012;2023-05-24T04:03:56;10.60;99.90
20858;DHT22;10589;53.636;10.012;2023-05-24T04:06:22;10.60;99.90
20858;DHT22;10589;53.636;10.012;2023-05-24T04:08:58;10.60;99.90
20858;DHT22;10589;53.636;10.012;2023-05-24T04:11:24;10.60;99.90
20858;DHT22;10589;53.636;10.012;2023-05-24T04:13:55;10.70;99.90
20858;DHT22;10589;53.636;10.012;2023-05-24T04:16:22;10.70;99.90
20858;DHT22;10589;53.636;10.012;2023-05-24T04:18:54;10.60;99.90
20858;DHT22;10589;53.636;10.012;2023-05-24T04:21:20;10.70;99.90
20858;DHT22;10589;53.636;10.012;2023-05-24T04:23:46;10.70;99.90
20858;DHT22;10589;53.636;10.012;2023-05-24T04:26:12;10.60;99.90
20858;DHT22;10589;53.636;10.012;2023-05-24T04:28:38;10.60;99.90
20858;DHT22;10589;53.636;10.012;2023-05-24T04:31:04;10.60;99.90
20858;DHT22;10589;53.636;10.012;2023-05-24T04:33:31;10.60;99.90
20858;DHT22;10589;53.636;10.012;2023-05-24T04:35:57;10.60;99.90
20858;DHT22;10589;53.636;10.012;2023-05-24T04:38:25;10.60;99.90
20858;DHT22;10589;53.636;10.012;2023-05-24T04:40:54;10.70;99.90
20858;DHT22;10589;53.636;10.012;2023-05-24T04:43:21;10.70;99.90
20858;DHT22;10589;53.636;10.012;2023-05-24T04:45:47;10.80;99.90
20858;DHT22;10589;53.636;10.012;2023-05-24T04:48:12;10.80;99.90
20858;DHT22;10589;53.636;10.012;2023-05-24T04:50:38;10.80;99.90
20858;DHT22;10589;53.636;10.012;2023-05-24T04:53:04;10.70;99.90
20858;DHT22;10589;53.636;10.012;2023-05-24T04:55:30;10.70;99.90
20858;DHT22;10589;53.636;10.012;2023-05-24T04:57:55;10.70;99.90
20858;DHT22;10589;53.636;10.012;2023-05-24T05:00:21;10.70;99.90
20858;DHT22;10589;53.636;10.012;2023-05-24T05:02:47;10.80;99.90
20858;DHT22;10589;53.636;10.012;2023-05-24T05:05:13;10.80;99.90
20858;DHT22;10589;53.636;10.012;2023-05-24T05:07:39;10.80;99.90
20858;DHT22;10589;53.636;10.012;2023-05-24T05:10:05;10.90;99.90
20858;DHT22;10589;53.636;10.012;2023-05-24T05:12:31;10.90;99.90
20858;DHT22;10589;53.636;10.012;2023-05-24T05:14:57;10.90;99.90
20858;DHT22;10589;53.636;10.012;2023-05-24T05:17:22;10.90;99.90
20858;DHT22;10589;53.636;10.012;2023-05-24T05:19:48;11.00;99.90
20858;DHT22;10589;53.636;10.012;2023-05-24T05:22:13;11.00;99.90
20858;DHT22;10589;53.636;10.012;2023-05-24T05:24:40;11.10;99.90
20858;DHT22;10589;53.636;10.012;2023-05-24T05:27:06;11.10;99.90
20858;DHT22;10589;53.636;10.012;2023-05-24T05:29:31;11.20;99.90
20858;DHT22;10589;53.636;10.012;2023-05-24T05:31:58;11.40;99.90
20858;DHT22;10589;53.636;10.012;2023-05-24T05:34:24;11.50;99.90
20858;DHT22;10589;53.636;10.012;2023-05-24T05:36:50;11.60;99.90
20858;DHT22;10589;53.636;10.012;2023-05-24T05:39:15;11.70;99.90
20858;DHT22;10589;53.636;10.012;2023-05-24T05:41:41;11.80;99.90
20858;DHT22;10589;53.636;10.012;2023-05-24T05:44:09;11.90;99.90
20858;DHT22;10589;53.636;10.012;2023-05-24T05:46:35;11.90;99.90
20858;DHT22;10589;53.636;10.012;2023-05-24T05:49:01;11.90;99.90
20858;DHT22;10589;53.636;10.012;2023-05-24T05:51:26;11.80;99.90
20858;DHT22;10589;53.636;10.012;2023-05-24T05:53:52;11.80;99.90
20858;DHT22;10589;53.636;10.012;2023-05-24T05:56:17;11.70;99.90
20858;DHT22;10589;53.636;10.012;2023-05-24T05:58:43;11.60;99.90
20858;DHT22;10589;53.636;10.012;2023-05-24T06:01:08;11.60;99.90
20858;DHT22;10589;53.636;10.012;2023-05-24T06:03:34;11.70;99.90
20858;DHT22;10589;53.636;10.012;2023-05-24T06:06:00;11.70;99.90
20858;DHT22;10589;53.636;10.012;2023-05-24T06:08:25;11.70;99.90
20858;DHT22;10589;53.636;10.012;2023-05-24T06:10:51;11.70;99.90
20858;DHT22;10589;53.636;10.012;2023-05-24T06:13:17;11.80;99.90
20858;DHT22;10589;53.636;10.012;2023-05-24T06:15:42;11.80;99.90
20858;DHT22;10589;53.636;10.012;2023-05-24T06:18:08;11.80;99.90
20858;DHT22;10589;53.636;10.012;2023-05-24T06:20:34;11.90;99.90
20858;DHT22;10589;53.636;10.012;2023-05-24T06:23:01;11.90;99.90
20858;DHT22;10589;53.636;10.012;2023-05-24T06:25:27;11.90;99.90
20858;DHT22;10589;53.636;10.012;2023-05-24T06:27:55;11.90;99.90
20858;DHT22;10589;53.636;10.012;2023-05-24T06:30:20;12.00;99.90
20858;DHT22;10589;53.636;10.012;2023-05-24T06:32:46;12.10;99.90
20858;DHT22;10589;53.636;10.012;2023-05-24T06:35:12;12.20;99.90
20858;DHT22;10589;53.636;10.012;2023-05-24T06:37:37;12.20;99.90
20858;DHT22;10589;53.636;10.012;2023-05-24T06:40:05;12.40;99.90
20858;DHT22;10589;53.636;10.012;2023-05-24T06:42:32;12.70;99.90
20858;DHT22;10589;53.636;10.012;2023-05-24T06:44:58;13.00;99.90
20858;DHT22;10589;53.636;10.012;2023-05-24T06:47:23;13.10;99.90
20858;DHT22;10589;53.636;10.012;2023-05-24T06:49:49;13.20;99.90
20858;DHT22;10589;53.636;10.012;2023-05-24T06:52:15;13.30;99.90
20858;DHT22;10589;53.636;10.012;2023-05-24T06:54:41;13.30;99.90
20858;DHT22;10589;53.636;10.012;2023-05-24T06:57:06;13.30;99.90
20858;DHT22;10589;53.636;10.012;2023-05-24T06:59:33;13.20;99.90
20858;DHT22;10589;53.636;10.012;2023-05-24T07:01:58;12.90;99.90
20858;DHT22;10589;53.636;10.012;2023-05-24T07:04:24;12.70;99.90
20858;DHT22;10589;53.636;10.012;2023-05-24T07:06:50;12.60;99.90
20858;DHT22;10589;53.636;10.012;2023-05-24T07:09:19;12.70;99.90
20858;DHT22;10589;53.636;10.012;2023-05-24T07:11:45;12.70;99.90
20858;DHT22;10589;53.636;10.012;2023-05-24T07:14:10;12.60;99.90
20858;DHT22;10589;53.636;10.012;2023-05-24T07:16:36;12.80;99.90
20858;DHT22;10589;53.636;10.012;2023-05-24T07:19:02;12.90;99.90
20858;DHT22;10589;53.636;10.012;2023-05-24T07:21:27;12.90;99.90
20858;DHT22;10589;53.636;10.012;2023-05-24T07:23:55;12.90;99.90
20858;DHT22;10589;53.636;10.012;2023-05-24T07:26:21;12.90;99.90
20858;DHT22;10589;53.636;10.012;2023-05-24T07:28:48;13.10;99.90
20858;DHT22;10589;53.636;10.012;2023-05-24T07:31:13;13.00;99.90
20858;DHT22;10589;53.636;10.012;2023-05-24T07:33:39;13.10;99.90
20858;DHT22;10589;53.636;10.012;2023-05-24T07:36:05;13.10;99.90
20858;DHT22;10589;53.636;10.012;2023-05-24T07:38:32;13.10;99.90
20858;DHT22;10589;53.636;10.012;2023-05-24T07:40:59;13.20;99.90
20858;DHT22;10589;53.636;10.012;2023-05-24T07:43:25;13.20;99.90
20858;DHT22;10589;53.636;10.012;2023-05-24T07:45:51;13.10;99.90
20858;DHT22;10589;53.636;10.012;2023-05-24T07:48:18;13.10;99.90
20858;DHT22;10589;53.636;10.012;2023-05-24T07:50:44;13.10;99.90
20858;DHT22;10589;53.636;10.012;2023-05-24T07:53:16;13.20;99.90
20858;DHT22;10589;53.636;10.012;2023-05-24T07:55:41;13.30;99.90
20858;DHT22;10589;53.636;10.012;2023-05-24T07:58:09;13.50;99.90
20858;DHT22;10589;53.636;10.012;2023-05-24T08:00:37;13.60;99.90
20858;DHT22;10589;53.636;10.012;2023-05-24T08:03:03;13.80;99.90
20858;DHT22;10589;53.636;10.012;2023-05-24T08:05:30;13.70;99.90
20858;DHT22;10589;53.636;10.012;2023-05-24T08:07:56;13.90;99.90
20858;DHT22;10589;53.636;10.012;2023-05-24T08:10:22;13.90;99.90
20858;DHT22;10589;53.636;10.012;2023-05-24T08:12:48;14.00;99.90
20858;DHT22;10589;53.636;10.012;2023-05-24T08:15:15;14.10;99.90
20858;DHT22;10589;53.636;10.012;2023-05-24T08:17:41;14.10;99.90
20858;DHT22;10589;53.636;10.012;2023-05-24T08:20:07;14.10;99.90
20858;DHT22;10589;53.636;10.012;2023-05-24T08:22:39;14.10;99.90
20858;DHT22;10589;53.636;10.012;2023-05-24T08:25:05;14.20;99.90
20858;DHT22;10589;53.636;10.012;2023-05-24T08:27:31;14.50;99.90
20858;DHT22;10589;53.636;10.012;2023-05-24T08:29:57;14.80;99.90
20858;DHT22;10589;53.636;10.012;2023-05-24T08:32:23;14.80;99.90
20858;DHT22;10589;53.636;10.012;2023-05-24T08:34:48;14.70;99.90
20858;DHT22;10589;53.636;10.012;2023-05-24T08:37:14;14.50;99.90
20858;DHT22;10589;53.636;10.012;2023-05-24T08:39:45;14.10;99.90
20858;DHT22;10589;53.636;10.012;2023-05-24T08:42:10;14.20;99.90
20858;DHT22;10589;53.636;10.012;2023-05-24T08:45:12;14.10;99.90
20858;DHT22;10589;53.636;10.012;2023-05-24T08:47:38;14.30;99.90
20858;DHT22;10589;53.636;10.012;2023-05-24T08:50:04;14.70;99.90
20858;DHT22;10589;53.636;10.012;2023-05-24T08:52:31;14.90;99.90
20858;DHT22;10589;53.636;10.012;2023-05-24T08:55:00;14.90;99.90
20858;DHT22;10589;53.636;10.012;2023-05-24T08:57:27;15.10;99.90
20858;DHT22;10589;53.636;10.012;2023-05-24T08:59:55;15.10;99.90
20858;DHT22;10589;53.636;10.012;2023-05-24T09:02:21;15.50;99.90
20858;DHT22;10589;53.636;10.012;2023-05-24T09:04:49;16.00;99.90
20858;DHT22;10589;53.636;10.012;2023-05-24T09:07:21;16.40;99.90
20858;DHT22;10589;53.636;10.012;2023-05-24T09:09:57;16.60;99.90
20858;DHT22;10589;53.636;10.012;2023-05-24T09:12:26;16.90;99.90
20858;DHT22;10589;53.636;10.012;2023-05-24T09:14:53;17.20;99.90
20858;DHT22;10589;53.636;10.012;2023-05-24T09:17:19;17.20;99.90
20858;DHT22;10589;53.636;10.012;2023-05-24T09:19:46;17.50;99.90
20858;DHT22;10589;53.636;10.012;2023-05-24T09:22:15;17.40;99.90
20858;DHT22;10589;53.636;10.012;2023-05-24T09:24:48;17.20;99.90
20858;DHT22;10589;53.636;10.012;2023-05-24T09:27:14;16.50;99.90
20858;DHT22;10589;53.636;10.012;2023-05-24T09:29:42;16.20;99.90
20858;DHT22;10589;53.636;10.012;2023-05-24T09:32:11;16.30;99.90
20858;DHT22;10589;53.636;10.012;2023-05-24T09:34:41;16.40;99.90
20858;DHT22;10589;53.636;10.012;2023-05-24T09:37:15;16.50;99.90
20858;DHT22;10589;53.636;10.012;2023-05-24T09:39:42;16.10;99.90
20858;DHT22;10589;53.636;10.012;2023-05-24T09:42:13;15.70;99.90
20858;DHT22;10589;53.636;10.012;2023-05-24T09:44:39;15.90;99.90
20858;DHT22;10589;53.636;10.012;2023-05-24T09:47:05;15.90;99.90
20858;DHT22;10589;53.636;10.012;2023-05-24T09:49:31;15.60;99.90
20858;DHT22;10589;53.636;10.012;2023-05-24T09:51:59;15.50;99.90
20858;DHT22;10589;53.636;10.012;2023-05-24T09:54:24;15.60;99.90
20858;DHT22;10589;53.636;10.012;2023-05-24T09:56:51;15.70;99.90
20858;DHT22;10589;53.636;10.012;2023-05-24T09:59:17;16.00;99.90
20858;DHT22;10589;53.636;10.012;2023-05-24T10:01:43;15.90;99.90
20858;DHT22;10589;53.636;10.012;2023-05-24T10:04:09;15.90;99.90
20858;DHT22;10589;53.636;10.012;2023-05-24T10:06:35;16.20;99.90
20858;DHT22;10589;53.636;10.012;2023-05-24T10:09:03;16.30;99.90
20858;DHT22;10589;53.636;10.012;2023-05-24T10:11:34;16.50;99.90
20858;DHT22;10589;53.636;10.012;2023-05-24T10:14:04;16.50;99.90
20858;DHT22;10589;53.636;10.012;2023-05-24T10:16:31;16.80;99.90
20858;DHT22;10589;53.636;10.012;2023-05-24T10:18:57;16.80;99.90
20858;DHT22;10589;53.636;10.012;2023-05-24T10:21:23;16.90;99.90
20858;DHT22;10589;53.636;10.012;2023-05-24T10:23:51;17.00;99.90
20858;DHT22;10589;53.636;10.012;2023-05-24T10:26:23;16.90;99.90
20858;DHT22;10589;53.636;10.012;2023-05-24T10:28:54;17.00;99.90
20858;DHT22;10589;53.636;10.012;2023-05-24T10:31:41;17.00;99.90
20858;DHT22;10589;53.636;10.012;2023-05-24T10:34:08;17.20;99.90
20858;DHT22;10589;53.636;10.012;2023-05-24T10:36:35;17.30;99.90
20858;DHT22;10589;53.636;10.012;2023-05-24T10:39:01;17.40;99.90
20858;DHT22;10589;53.636;10.012;2023-05-24T10:41:28;17.00;99.90
20858;DHT22;10589;53.636;10.012;2023-05-24T10:43:56;17.00;99.90
20858;DHT22;10589;53.636;10.012;2023-05-24T10:46:22;16.90;99.90
20858;DHT22;10589;53.636;10.012;2023-05-24T10:48:58;16.90;99.90
20858;DHT22;10589;53.636;10.012;2023-05-24T10:51:33;17.00;99.90
20858;DHT22;10589;53.636;10.012;2023-05-24T10:54:13;17.20;99.90
20858;DHT22;10589;53.636;10.012;2023-05-24T10:56:44;16.70;99.90
20858;DHT22;10589;53.636;10.012;2023-05-24T10:59:31;16.50;99.90
20858;DHT22;10589;53.636;10.012;2023-05-24T11:02:00;17.00;99.90
20858;DHT22;10589;53.636;10.012;2023-05-24T11:04:32;17.50;99.90
20858;DHT22;10589;53.636;10.012;2023-05-24T11:07:06;17.90;99.90
20858;DHT22;10589;53.636;10.012;2023-05-24T11:09:37;18.20;99.90
20858;DHT22;10589;53.636;10.012;2023-05-24T11:12:14;18.30;99.90
20858;DHT22;10589;53.636;10.012;2023-05-24T11:14:40;19.00;99.90
20858;DHT22;10589;53.636;10.012;2023-05-24T11:17:11;18.60;99.90
20858;DHT22;10589;53.636;10.012;2023-05-24T11:19:44;19.00;99.90
20858;DHT22;10589;53.636;10.012;2023-05-24T11:22:10;19.20;99.90
20858;DHT22;10589;53.636;10.012;2023-05-24T11:24:39;19.20;99.90
20858;DHT22;10589;53.636;10.012;2023-05-24T11:27:06;19.00;99.90
20858;DHT22;10589;53.636;10.012;2023-05-24T11:29:32;18.60;99.90
20858;DHT22;10589;53.636;10.012;2023-05-24T11:32:04;18.40;99.90
20858;DHT22;10589;53.636;10.012;2023-05-24T11:34:30;17.60;99.90
20858;DHT22;10589;53.636;10.012;2023-05-24T11:36:57;17.60;99.90
20858;DHT22;10589;53.636;10.012;2023-05-24T11:39:23;17.00;99.90
20858;DHT22;10589;53.636;10.012;2023-05-24T11:41:53;17.30;99.90
20858;DHT22;10589;53.636;10.012;2023-05-24T11:44:18;17.50;99.90
20858;DHT22;10589;53.636;10.012;2023-05-24T11:46:44;18.00;99.90
20858;DHT22;10589;53.636;10.012;2023-05-24T11:49:14;18.40;99.90
20858;DHT22;10589;53.636;10.012;2023-05-24T11:51:40;18.90;99.90
20858;DHT22;10589;53.636;10.012;2023-05-24T11:54:06;19.40;99.90
20858;DHT22;10589;53.636;10.012;2023-05-24T11:56:32;19.60;99.90
20858;DHT22;10589;53.636;10.012;2023-05-24T12:01:26;18.60;99.90
20858;DHT22;10589;53.636;10.012;2023-05-24T12:03:53;17.90;99.90
20858;DHT22;10589;53.636;10.012;2023-05-24T12:06:23;18.00;99.90
20858;DHT22;10589;53.636;10.012;2023-05-24T12:08:49;18.00;99.90
20858;DHT22;10589;53.636;10.012;2023-05-24T12:11:15;18.10;99.90
20858;DHT22;10589;53.636;10.012;2023-05-24T12:13:41;17.80;99.90
20858;DHT22;10589;53.636;10.012;2023-05-24T12:16:10;17.50;99.90
20858;DHT22;10589;53.636;10.012;2023-05-24T12:18:37;17.50;99.90
20858;DHT22;10589;53.636;10.012;2023-05-24T12:21:07;17.40;99.90
20858;DHT22;10589;53.636;10.012;2023-05-24T12:23:34;17.50;99.90
20858;DHT22;10589;53.636;10.012;2023-05-24T12:26:04;17.60;99.90
20858;DHT22;10589;53.636;10.012;2023-05-24T12:28:33;17.80;99.90
20858;DHT22;10589;53.636;10.012;2023-05-24T12:31:04;18.10;99.90
20858;DHT22;10589;53.636;10.012;2023-05-24T12:33:30;18.30;99.90
20858;DHT22;10589;53.636;10.012;2023-05-24T12:35:57;18.50;99.90
20858;DHT22;10589;53.636;10.012;2023-05-24T12:38:23;18.70;99.90
20858;DHT22;10589;53.636;10.012;2023-05-24T12:40:50;18.70;99.90
20858;DHT22;10589;53.636;10.012;2023-05-24T12:43:20;18.40;99.90
20858;DHT22;10589;53.636;10.012;2023-05-24T12:45:46;18.50;99.90
20858;DHT22;10589;53.636;10.012;2023-05-24T12:48:13;18.50;99.90
20858;DHT22;10589;53.636;10.012;2023-05-24T12:50:38;18.50;99.90
20858;DHT22;10589;53.636;10.012;2023-05-24T12:53:04;18.70;99.90
20858;DHT22;10589;53.636;10.012;2023-05-24T12:55:30;18.80;99.90
20858;DHT22;10589;53.636;10.012;2023-05-24T12:57:57;18.50;99.90
20858;DHT22;10589;53.636;10.012;2023-05-24T13:00:24;19.00;99.90
20858;DHT22;10589;53.636;10.012;2023-05-24T13:02:52;19.10;99.90
20858;DHT22;10589;53.636;10.012;2023-05-24T13:05:21;19.20;99.90
20858;DHT22;10589;53.636;10.012;2023-05-24T13:07:49;19.00;99.90
20858;DHT22;10589;53.636;10.012;2023-05-24T13:10:16;19.10;99.90
20858;DHT22;10589;53.636;10.012;2023-05-24T13:12:43;19.40;99.90
20858;DHT22;10589;53.636;10.012;2023-05-24T13:15:09;19.20;99.90
20858;DHT22;10589;53.636;10.012;2023-05-24T13:17:37;19.40;99.90
20858;DHT22;10589;53.636;10.012;2023-05-24T13:20:05;19.60;99.90
20858;DHT22;10589;53.636;10.012;2023-05-24T13:22:33;19.90;99.90
20858;DHT22;10589;53.636;10.012;2023-05-24T13:25:00;20.80;99.90
20858;DHT22;10589;53.636;10.012;2023-05-24T13:27:27;21.50;99.90
20858;DHT22;10589;53.636;10.012;2023-05-24T13:29:52;21.80;99.90
20858;DHT22;10589;53.636;10.012;2023-05-24T13:32:18;21.90;99.90
20858;DHT22;10589;53.636;10.012;2023-05-24T13:34:43;21.80;99.90
20858;DHT22;10589;53.636;10.012;2023-05-24T13:37:09;21.70;99.90
20858;DHT22;10589;53.636;10.012;2023-05-24T13:39:35;21.90;99.90
20858;DHT22;10589;53.636;10.012;2023-05-24T13:42:03;22.60;99.90
20858;DHT22;10589;53.636;10.012;2023-05-24T13:44:28;22.80;99.90
20858;DHT22;10589;53.636;10.012;2023-05-24T13:46:55;23.40;99.90
20858;DHT22;10589;53.636;10.012;2023-05-24T13:49:21;24.60;99.90
20858;DHT22;10589;53.636;10.012;2023-05-24T13:51:47;25.20;99.90
20858;DHT22;10589;53.636;10.012;2023-05-24T13:54:13;25.10;99.90
20858;DHT22;10589;53.636;10.012;2023-05-24T13:56:39;22.90;99.90
20858;DHT22;10589;53.636;10.012;2023-05-24T13:59:07;22.50;99.90
20858;DHT22;10589;53.636;10.012;2023-05-24T14:01:33;22.10;99.90
20858;DHT22;10589;53.636;10.012;2023-05-24T14:04:00;22.00;99.90
20858;DHT22;10589;53.636;10.012;2023-05-24T14:06:26;21.70;99.90
20858;DHT22;10589;53.636;10.012;2023-05-24T14:08:52;21.70;99.90
20858;DHT22;10589;53.636;10.012;2023-05-24T14:11:18;21.60;99.90
20858;DHT22;10589;53.636;10.012;2023-05-24T14:13:44;21.20;99.90
20858;DHT22;10589;53.636;10.012;2023-05-24T14:16:10;20.60;99.90
20858;DHT22;10589;53.636;10.012;2023-05-24T14:18:35;20.30;99.90
20858;DHT22;10589;53.636;10.012;2023-05-24T14:21:01;20.40;99.90
20858;DHT22;10589;53.636;10.012;2023-05-24T14:23:27;20.00;99.90
20858;DHT22;10589;53.636;10.012;2023-05-24T14:25:56;20.60;99.90
20858;DHT22;10589;53.636;10.012;2023-05-24T14:28:21;20.90;99.90
20858;DHT22;10589;53.636;10.012;2023-05-24T14:30:47;21.00;99.90
20858;DHT22;10589;53.636;10.012;2023-05-24T14:33:13;21.60;99.90
20858;DHT22;10589;53.636;10.012;2023-05-24T14:35:38;22.10;99.90
20858;DHT22;10589;53.636;10.012;2023-05-24T14:38:05;22.20;99.90
20858;DHT22;10589;53.636;10.012;2023-05-24T14:40:31;22.30;99.90
20858;DHT22;10589;53.636;10.012;2023-05-24T14:42:59;22.40;99.90
20858;DHT22;10589;53.636;10.012;2023-05-24T14:45:24;23.10;99.90
20858;DHT22;10589;53.636;10.012;2023-05-24T14:47:50;24.20;99.90
20858;DHT22;10589;53.636;10.012;2023-05-24T14:50:16;25.90;99.90
20858;DHT22;10589;53.636;10.012;2023-05-24T14:52:42;27.50;99.90
20858;DHT22;10589;53.636;10.012;2023-05-24T14:55:08;29.10;99.90
20858;DHT22;10589;53.636;10.012;2023-05-24T14:57:34;27.70;99.90
20858;DHT22;10589;53.636;10.012;2023-05-24T15:00:00;27.20;99.90
20858;DHT22;10589;53.636;10.012;2023-05-24T15:02:26;26.20;99.90
20858;DHT22;10589;53.636;10.012;2023-05-24T15:04:52;25.40;99.90
20858;DHT22;10589;53.636;10.012;2023-05-24T15:07:17;25.40;99.90
20858;DHT22;10589;53.636;10.012;2023-05-24T15:09:43;25.80;99.90
20858;DHT22;10589;53.636;10.012;2023-05-24T15:12:08;27.10;99.90
20858;DHT22;10589;53.636;10.012;2023-05-24T15:14:34;28.60;99.90
20858;DHT22;10589;53.636;10.012;2023-05-24T15:17:00;30.20;99.90
20858;DHT22;10589;53.636;10.012;2023-05-24T15:19:26;31.30;99.90
20858;DHT22;10589;53.636;10.012;2023-05-24T15:21:52;31.80;99.90
20858;DHT22;10589;53.636;10.012;2023-05-24T15:24:17;31.70;99.90
20858;DHT22;10589;53.636;10.012;2023-05-24T15:26:43;31.00;99.90
20858;DHT22;10589;53.636;10.012;2023-05-24T15:29:08;29.70;99.90
20858;DHT22;10589;53.636;10.012;2023-05-24T15:31:34;28.90;99.90
20858;DHT22;10589;53.636;10.012;2023-05-24T15:34:00;28.10;99.90
20858;DHT22;10589;53.636;10.012;2023-05-24T15:36:26;27.10;99.90
20858;DHT22;10589;53.636;10.012;2023-05-24T15:38:51;26.60;99.90
20858;DHT22;10589;53.636;10.012;2023-05-24T15:41:17;26.30;99.90
20858;DHT22;10589;53.636;10.012;2023-05-24T15:43:43;26.10;99.90
20858;DHT22;10589;53.636;10.012;2023-05-24T15:46:09;26.40;99.90
20858;DHT22;10589;53.636;10.012;2023-05-24T15:48:34;27.30;99.90
20858;DHT22;10589;53.636;10.012;2023-05-24T15:51:00;28.00;99.90
20858;DHT22;10589;53.636;10.012;2023-05-24T15:53:25;28.90;99.90
20858;DHT22;10589;53.636;10.012;2023-05-24T15:55:51;30.10;99.90
20858;DHT22;10589;53.636;10.012;2023-05-24T15:58:17;30.80;99.90
20858;DHT22;10589;53.636;10.012;2023-05-24T16:00:42;30.60;99.90
20858;DHT22;10589;53.636;10.012;2023-05-24T16:03:08;29.80;99.90
20858;DHT22;10589;53.636;10.012;2023-05-24T16:05:34;29.10;99.90
20858;DHT22;10589;53.636;10.012;2023-05-24T16:07:59;28.60;99.90
20858;DHT22;10589;53.636;10.012;2023-05-24T16:10:26;28.10;99.90
20858;DHT22;10589;53.636;10.012;2023-05-24T16:12:52;28.20;99.90
20858;DHT22;10589;53.636;10.012;2023-05-24T16:15:17;28.60;99.90
20858;DHT22;10589;53.636;10.012;2023-05-24T16:17:43;29.40;99.90
20858;DHT22;10589;53.636;10.012;2023-05-24T16:20:09;29.90;99.90
20858;DHT22;10589;53.636;10.012;2023-05-24T16:22:35;30.40;99.90
20858;DHT22;10589;53.636;10.012;2023-05-24T16:25:01;30.60;99.90
20858;DHT22;10589;53.636;10.012;2023-05-24T16:27:26;30.70;99.90
20858;DHT22;10589;53.636;10.012;2023-05-24T16:29:52;30.60;99.90
20858;DHT22;10589;53.636;10.012;2023-05-24T16:32:18;30.70;99.90
20858;DHT22;10589;53.636;10.012;2023-05-24T16:34:43;31.00;99.90
20858;DHT22;10589;53.636;10.012;2023-05-24T16:37:09;30.10;99.90
20858;DHT22;10589;53.636;10.012;2023-05-24T16:39:34;30.00;99.90
20858;DHT22;10589;53.636;10.012;2023-05-24T16:42:03;29.90;99.90
20858;DHT22;10589;53.636;10.012;2023-05-24T16:44:29;30.30;99.90
20858;DHT22;10589;53.636;10.012;2023-05-24T16:46:54;30.70;99.90
20858;DHT22;10589;53.636;10.012;2023-05-24T16:49:21;29.60;99.90
20858;DHT22;10589;53.636;10.012;2023-05-24T16:51:46;28.30;99.90
20858;DHT22;10589;53.636;10.012;2023-05-24T16:54:14;26.50;99.90
20858;DHT22;10589;53.636;10.012;2023-05-24T16:56:49;25.50;99.90
20858;DHT22;10589;53.636;10.012;2023-05-24T16:59:18;24.60;99.90
20858;DHT22;10589;53.636;10.012;2023-05-24T17:01:43;24.60;99.90
20858;DHT22;10589;53.636;10.012;2023-05-24T17:04:09;25.10;99.90
20858;DHT22;10589;53.636;10.012;2023-05-24T17:06:35;25.70;99.90
20858;DHT22;10589;53.636;10.012;2023-05-24T17:09:01;25.50;99.90
20858;DHT22;10589;53.636;10.012;2023-05-24T17:11:27;24.40;99.90
20858;DHT22;10589;53.636;10.012;2023-05-24T17:13:52;23.80;99.90
20858;DHT22;10589;53.636;10.012;2023-05-24T17:16:19;23.00;99.90
20858;DHT22;10589;53.636;10.012;2023-05-24T17:18:45;22.40;99.90
20858;DHT22;10589;53.636;10.012;2023-05-24T17:21:10;21.40;99.90
20858;DHT22;10589;53.636;10.012;2023-05-24T17:23:36;20.90;99.90
20858;DHT22;10589;53.636;10.012;2023-05-24T17:26:02;20.50;99.90
20858;DHT22;10589;53.636;10.012;2023-05-24T17:28:28;20.10;99.90
20858;DHT22;10589;53.636;10.012;2023-05-24T17:30:58;19.60;99.90
20858;DHT22;10589;53.636;10.012;2023-05-24T17:33:26;19.10;99.90
20858;DHT22;10589;53.636;10.012;2023-05-24T17:35:52;18.90;99.90
20858;DHT22;10589;53.636;10.012;2023-05-24T17:38:22;18.70;99.90
20858;DHT22;10589;53.636;10.012;2023-05-24T17:40:48;18.50;99.90
20858;DHT22;10589;53.636;10.012;2023-05-24T17:43:21;18.40;99.90
20858;DHT22;10589;53.636;10.012;2023-05-24T17:45:46;18.10;99.90
20858;DHT22;10589;53.636;10.012;2023-05-24T17:48:12;17.70;99.90
20858;DHT22;10589;53.636;10.012;2023-05-24T17:50:37;17.50;99.90
20858;DHT22;10589;53.636;10.012;2023-05-24T17:53:03;17.30;99.90
20858;DHT22;10589;53.636;10.012;2023-05-24T17:55:29;17.10;99.90
20858;DHT22;10589;53.636;10.012;2023-05-24T17:57:54;16.80;99.90
20858;DHT22;10589;53.636;10.012;2023-05-24T18:00:20;16.70;99.90
20858;DHT22;10589;53.636;10.012;2023-05-24T18:02:46;16.50;99.90
20858;DHT22;10589;53.636;10.012;2023-05-24T18:05:12;16.40;99.90
20858;DHT22;10589;53.636;10.012;2023-05-24T18:07:37;16.30;99.90
20858;DHT22;10589;53.636;10.012;2023-05-24T18:10:04;16.20;99.90
20858;DHT22;10589;53.636;10.012;2023-05-24T18:12:29;16.10;99.90
20858;DHT22;10589;53.636;10.012;2023-05-24T18:14:55;16.00;99.90
20858;DHT22;10589;53.636;10.012;2023-05-24T18:17:20;15.80;99.90
20858;DHT22;10589;53.636;10.012;2023-05-24T18:19:46;15.70;99.90
20858;DHT22;10589;53.636;10.012;2023-05-24T18:22:12;15.70;99.90
20858;DHT22;10589;53.636;10.012;2023-05-24T18:24:37;15.60;99.90
20858;DHT22;10589;53.636;10.012;2023-05-24T18:27:03;15.40;99.90
20858;DHT22;10589;53.636;10.012;2023-05-24T18:29:29;15.20;99.90
20858;DHT22;10589;53.636;10.012;2023-05-24T18:31:55;15.10;99.90
20858;DHT22;10589;53.636;10.012;2023-05-24T18:34:20;15.10;99.90
20858;DHT22;10589;53.636;10.012;2023-05-24T18:36:46;15.00;99.90
20858;DHT22;10589;53.636;10.012;2023-05-24T18:39:12;15.10;99.90
20858;DHT22;10589;53.636;10.012;2023-05-24T18:41:37;14.90;99.90
20858;DHT22;10589;53.636;10.012;2023-05-24T18:44:04;14.90;99.90
20858;DHT22;10589;53.636;10.012;2023-05-24T18:46:29;14.80;99.90
20858;DHT22;10589;53.636;10.012;2023-05-24T18:48:55;14.60;99.90
20858;DHT22;10589;53.636;10.012;2023-05-24T18:51:24;14.50;99.90
20858;DHT22;10589;53.636;10.012;2023-05-24T18:53:50;14.30;99.90
20858;DHT22;10589;53.636;10.012;2023-05-24T18:56:16;14.20;99.90
20858;DHT22;10589;53.636;10.012;2023-05-24T18:58:42;14.00;99.90
20858;DHT22;10589;53.636;10.012;2023-05-24T19:01:10;13.90;99.90